sensor_id;sensor_type;location;lat;lon;timestamp;temperature;humidity
44886;DHT22;36669;51.428;21.162;2024-03-29T00:01:45;9.00;99.90
44886;DHT22;36669;51.428;21.162;2024-03-29T00:04:12;9.00;99.90
44886;DHT22;36669;51.428;21.162;2024-03-29T00:06:39;9.00;99.90
44886;DHT22;36669;51.428;21.162;2024-03-29T00:09:07;8.90;99.90
44886;DHT22;36669;51.428;21.162;2024-03-29T00:11:34;8.90;99.90
44886;DHT22;36669;51.428;21.162;2024-03-29T00:14:01;8.90;99.90
44886;DHT22;36669;51.428;21.162;2024-03-29T00:16:28;8.90;99.90
44886;DHT22;36669;51.428;21.162;2024-03-29T00:18:54;8.90;99.90
44886;DHT22;36669;51.428;21.162;2024-03-29T00:21:22;8.90;99.90
44886;DHT22;36669;51.428;21.162;2024-03-29T00:23:51;8.90;99.90
44886;DHT22;36669;51.428;21.162;2024-03-29T00:26:18;8.90;99.90
44886;DHT22;36669;51.428;21.162;2024-03-29T00:28:55;8.90;99.90
44886;DHT22;36669;51.428;21.162;2024-03-29T00:31:21;8.80;99.90
44886;DHT22;36669;51.428;21.162;2024-03-29T00:33:49;8.80;99.90
44886;DHT22;36669;51.428;21.162;2024-03-29T00:36:15;8.80;99.90
44886;DHT22;36669;51.428;21.162;2024-03-29T00:38:42;8.80;99.90
44886;DHT22;36669;51.428;21.162;2024-03-29T00:41:09;8.80;99.90
44886;DHT22;36669;51.428;21.162;2024-03-29T00:43:36;8.70;99.90
44886;DHT22;36669;51.428;21.162;2024-03-29T00:46:03;8.70;99.90
44886;DHT22;36669;51.428;21.162;2024-03-29T00:48:30;8.70;99.90
44886;DHT22;36669;51.428;21.162;2024-03-29T00:50:57;8.60;99.90
44886;DHT22;36669;51.428;21.162;2024-03-29T00:53:27;8.60;99.90
44886;DHT22;36669;51.428;21.162;2024-03-29T00:55:52;8.50;99.90
44886;DHT22;36669;51.428;21.162;2024-03-29T00:58:19;8.30;99.90
44886;DHT22;36669;51.428;21.162;2024-03-29T01:00:46;8.30;99.90
44886;DHT22;36669;51.428;21.162;2024-03-29T01:03:13;8.30;99.90
44886;DHT22;36669;51.428;21.162;2024-03-29T01:05:39;8.30;99.90
44886;DHT22;36669;51.428;21.162;2024-03-29T01:08:07;8.20;99.90
44886;DHT22;36669;51.428;21.162;2024-03-29T01:10:34;8.10;99.90
44886;DHT22;36669;51.428;21.162;2024-03-29T01:13:02;8.10;99.90
44886;DHT22;36669;51.428;21.162;2024-03-29T01:15:29;8.00;99.90
44886;DHT22;36669;51.428;21.162;2024-03-29T01:17:57;8.00;99.90
44886;DHT22;36669;51.428;21.162;2024-03-29T01:20:23;8.00;99.90
44886;DHT22;36669;51.428;21.162;2024-03-29T01:22:50;8.00;99.90
44886;DHT22;36669;51.428;21.162;2024-03-29T01:25:16;7.90;99.90
44886;DHT22;36669;51.428;21.162;2024-03-29T01:27:44;7.90;99.90
44886;DHT22;36669;51.428;21.162;2024-03-29T01:30:10;7.80;99.90
44886;DHT22;36669;51.428;21.162;2024-03-29T01:32:35;7.70;99.90
44886;DHT22;36669;51.428;21.162;2024-03-29T01:35:01;7.70;99.90
44886;DHT22;36669;51.428;21.162;2024-03-29T01:37:27;7.70;99.90
44886;DHT22;36669;51.428;21.162;2024-03-29T01:39:54;7.70;99.90
44886;DHT22;36669;51.428;21.162;2024-03-29T01:42:21;7.60;99.90
44886;DHT22;36669;51.428;21.162;2024-03-29T01:44:47;7.60;99.90
44886;DHT22;36669;51.428;21.162;2024-03-29T01:47:17;7.60;99.90
44886;DHT22;36669;51.428;21.162;2024-03-29T01:49:44;7.60;99.90
44886;DHT22;36669;51.428;21.162;2024-03-29T01:52:14;7.60;99.90
44886;DHT22;36669;51.428;21.162;2024-03-29T01:54:42;7.50;99.90
44886;DHT22;36669;51.428;21.162;2024-03-29T01:57:09;7.50;99.90
44886;DHT22;36669;51.428;21.162;2024-03-29T01:59:37;7.50;99.90
44886;DHT22;36669;51.428;21.162;2024-03-29T02:02:03;7.50;99.90
44886;DHT22;36669;51.428;21.162;2024-03-29T02:04:30;7.50;99.90
44886;DHT22;36669;51.428;21.162;2024-03-29T02:06:56;7.40;99.90
44886;DHT22;36669;51.428;21.162;2024-03-29T02:09:22;7.50;99.90
44886;DHT22;36669;51.428;21.162;2024-03-29T02:11:48;7.50;99.90
44886;DHT22;36669;51.428;21.162;2024-03-29T02:14:18;7.40;99.90
44886;DHT22;36669;51.428;21.162;2024-03-29T02:16:45;7.40;99.90
44886;DHT22;36669;51.428;21.162;2024-03-29T02:19:10;7.40;99.90
44886;DHT22;36669;51.428;21.162;2024-03-29T02:21:39;7.40;99.90
44886;DHT22;36669;51.428;21.162;2024-03-29T02:24:09;7.30;99.90
44886;DHT22;36669;51.428;21.162;2024-03-29T02:26:37;7.40;99.90
44886;DHT22;36669;51.428;21.162;2024-03-29T02:29:08;7.40;99.90
44886;DHT22;36669;51.428;21.162;2024-03-29T02:31:36;7.30;99.90
44886;DHT22;36669;51.428;21.162;2024-03-29T02:34:03;7.40;99.90
44886;DHT22;36669;51.428;21.162;2024-03-29T02:36:30;7.30;99.90
44886;DHT22;36669;51.428;21.162;2024-03-29T02:38:58;7.30;99.90
44886;DHT22;36669;51.428;21.162;2024-03-29T02:41:24;7.30;99.90
44886;DHT22;36669;51.428;21.162;2024-03-29T02:43:54;7.30;99.90
44886;DHT22;36669;51.428;21.162;2024-03-29T02:46:23;7.30;99.90
44886;DHT22;36669;51.428;21.162;2024-03-29T02:48:50;7.20;99.90
44886;DHT22;36669;51.428;21.162;2024-03-29T02:51:15;7.20;99.90
44886;DHT22;36669;51.428;21.162;2024-03-29T02:53:42;7.30;99.90
44886;DHT22;36669;51.428;21.162;2024-03-29T02:56:08;7.20;99.90
44886;DHT22;36669;51.428;21.162;2024-03-29T02:58:37;7.20;99.90
44886;DHT22;36669;51.428;21.162;2024-03-29T03:01:08;7.20;99.90
44886;DHT22;36669;51.428;21.162;2024-03-29T03:03:36;7.10;99.90
44886;DHT22;36669;51.428;21.162;2024-03-29T03:06:03;7.10;99.90
44886;DHT22;36669;51.428;21.162;2024-03-29T03:08:30;7.10;99.90
44886;DHT22;36669;51.428;21.162;2024-03-29T03:11:16;7.20;99.90
44886;DHT22;36669;51.428;21.162;2024-03-29T03:13:44;7.20;99.90
44886;DHT22;36669;51.428;21.162;2024-03-29T03:16:09;7.20;99.90
44886;DHT22;36669;51.428;21.162;2024-03-29T03:18:36;7.20;99.90
44886;DHT22;36669;51.428;21.162;2024-03-29T03:21:02;7.20;99.90
44886;DHT22;36669;51.428;21.162;2024-03-29T03:23:29;7.30;99.90
44886;DHT22;36669;51.428;21.162;2024-03-29T03:26:01;7.30;99.90
44886;DHT22;36669;51.428;21.162;2024-03-29T03:28:31;7.30;99.90
44886;DHT22;36669;51.428;21.162;2024-03-29T03:30:59;7.30;99.90
44886;DHT22;36669;51.428;21.162;2024-03-29T03:33:25;7.30;99.90
44886;DHT22;36669;51.428;21.162;2024-03-29T03:35:53;7.30;99.90
44886;DHT22;36669;51.428;21.162;2024-03-29T03:38:20;7.30;99.90
44886;DHT22;36669;51.428;21.162;2024-03-29T03:40:47;7.30;99.90
44886;DHT22;36669;51.428;21.162;2024-03-29T03:43:15;7.30;99.90
44886;DHT22;36669;51.428;21.162;2024-03-29T03:45:42;7.20;99.90
44886;DHT22;36669;51.428;21.162;2024-03-29T03:48:11;7.20;99.90
44886;DHT22;36669;51.428;21.162;2024-03-29T03:50:38;7.20;99.90
44886;DHT22;36669;51.428;21.162;2024-03-29T03:53:04;7.20;99.90
44886;DHT22;36669;51.428;21.162;2024-03-29T03:55:44;7.20;99.90
44886;DHT22;36669;51.428;21.162;2024-03-29T03:58:09;7.10;99.90
44886;DHT22;36669;51.428;21.162;2024-03-29T04:00:37;7.10;99.90
44886;DHT22;36669;51.428;21.162;2024-03-29T04:03:04;7.20;99.90
44886;DHT22;36669;51.428;21.162;2024-03-29T04:05:30;7.20;99.90
44886;DHT22;36669;51.428;21.162;2024-03-29T04:07:59;7.30;99.90
44886;DHT22;36669;51.428;21.162;2024-03-29T04:10:26;7.30;99.90
44886;DHT22;36669;51.428;21.162;2024-03-29T04:12:52;7.30;99.90
44886;DHT22;36669;51.428;21.162;2024-03-29T04:15:18;7.20;99.90
44886;DHT22;36669;51.428;21.162;2024-03-29T04:17:45;7.20;99.90
44886;DHT22;36669;51.428;21.162;2024-03-29T04:20:12;7.20;99.90
44886;DHT22;36669;51.428;21.162;2024-03-29T04:22:40;7.20;99.90
44886;DHT22;36669;51.428;21.162;2024-03-29T04:25:08;7.20;99.90
44886;DHT22;36669;51.428;21.162;2024-03-29T04:27:36;7.20;99.90
44886;DHT22;36669;51.428;21.162;2024-03-29T04:30:04;7.20;99.90
44886;DHT22;36669;51.428;21.162;2024-03-29T04:32:31;7.20;99.90
44886;DHT22;36669;51.428;21.162;2024-03-29T04:34:57;7.10;99.90
44886;DHT22;36669;51.428;21.162;2024-03-29T04:37:24;7.20;99.90
44886;DHT22;36669;51.428;21.162;2024-03-29T04:39:51;7.20;99.90
44886;DHT22;36669;51.428;21.162;2024-03-29T04:42:19;7.20;99.90
44886;DHT22;36669;51.428;21.162;2024-03-29T04:44:47;7.20;99.90
44886;DHT22;36669;51.428;21.162;2024-03-29T04:47:13;7.10;99.90
44886;DHT22;36669;51.428;21.162;2024-03-29T04:49:38;7.10;99.90
44886;DHT22;36669;51.428;21.162;2024-03-29T04:52:07;7.00;99.90
44886;DHT22;36669;51.428;21.162;2024-03-29T04:54:35;7.00;99.90
44886;DHT22;36669;51.428;21.162;2024-03-29T04:57:02;6.90;99.90
44886;DHT22;36669;51.428;21.162;2024-03-29T04:59:32;6.90;99.90
44886;DHT22;36669;51.428;21.162;2024-03-29T05:02:02;6.90;99.90
44886;DHT22;36669;51.428;21.162;2024-03-29T05:04:29;6.80;99.90
44886;DHT22;36669;51.428;21.162;2024-03-29T05:06:57;6.80;99.90
44886;DHT22;36669;51.428;21.162;2024-03-29T05:09:24;6.70;99.90
44886;DHT22;36669;51.428;21.162;2024-03-29T05:11:51;6.70;99.90
44886;DHT22;36669;51.428;21.162;2024-03-29T05:14:19;6.70;99.90
44886;DHT22;36669;51.428;21.162;2024-03-29T05:16:47;6.70;99.90
44886;DHT22;36669;51.428;21.162;2024-03-29T05:19:15;6.80;99.90
44886;DHT22;36669;51.428;21.162;2024-03-29T05:21:42;6.80;99.90
44886;DHT22;36669;51.428;21.162;2024-03-29T05:24:08;6.80;99.90
44886;DHT22;36669;51.428;21.162;2024-03-29T05:26:34;6.90;99.90
44886;DHT22;36669;51.428;21.162;2024-03-29T05:29:01;6.90;99.90
44886;DHT22;36669;51.428;21.162;2024-03-29T05:31:29;7.00;99.90
44886;DHT22;36669;51.428;21.162;2024-03-29T05:33:56;7.00;99.90
44886;DHT22;36669;51.428;21.162;2024-03-29T05:36:24;7.10;99.90
44886;DHT22;36669;51.428;21.162;2024-03-29T05:38:50;7.10;99.90
44886;DHT22;36669;51.428;21.162;2024-03-29T05:41:17;7.20;99.90
44886;DHT22;36669;51.428;21.162;2024-03-29T05:43:42;7.20;99.90
44886;DHT22;36669;51.428;21.162;2024-03-29T05:46:09;7.30;99.90
44886;DHT22;36669;51.428;21.162;2024-03-29T05:48:35;7.40;99.90
44886;DHT22;36669;51.428;21.162;2024-03-29T05:51:01;7.50;99.90
44886;DHT22;36669;51.428;21.162;2024-03-29T05:53:27;7.50;99.90
44886;DHT22;36669;51.428;21.162;2024-03-29T05:55:55;7.60;99.90
44886;DHT22;36669;51.428;21.162;2024-03-29T05:58:22;7.70;99.90
44886;DHT22;36669;51.428;21.162;2024-03-29T06:00:50;7.70;99.90
44886;DHT22;36669;51.428;21.162;2024-03-29T06:03:17;7.80;99.90
44886;DHT22;36669;51.428;21.162;2024-03-29T06:05:43;7.80;99.90
44886;DHT22;36669;51.428;21.162;2024-03-29T06:08:08;7.90;99.90
44886;DHT22;36669;51.428;21.162;2024-03-29T06:10:35;8.00;99.90
44886;DHT22;36669;51.428;21.162;2024-03-29T06:13:01;8.00;99.90
44886;DHT22;36669;51.428;21.162;2024-03-29T06:15:34;8.10;99.90
44886;DHT22;36669;51.428;21.162;2024-03-29T06:18:20;8.20;99.90
44886;DHT22;36669;51.428;21.162;2024-03-29T06:20:47;8.20;99.90
44886;DHT22;36669;51.428;21.162;2024-03-29T06:23:13;8.20;99.90
44886;DHT22;36669;51.428;21.162;2024-03-29T06:25:41;8.40;99.90
44886;DHT22;36669;51.428;21.162;2024-03-29T06:28:09;8.40;99.90
44886;DHT22;36669;51.428;21.162;2024-03-29T06:30:36;8.50;99.90
44886;DHT22;36669;51.428;21.162;2024-03-29T06:33:03;8.60;99.90
44886;DHT22;36669;51.428;21.162;2024-03-29T06:35:29;8.60;99.90
44886;DHT22;36669;51.428;21.162;2024-03-29T06:37:57;8.60;99.90
44886;DHT22;36669;51.428;21.162;2024-03-29T06:40:26;8.70;99.90
44886;DHT22;36669;51.428;21.162;2024-03-29T06:42:54;8.80;99.90
44886;DHT22;36669;51.428;21.162;2024-03-29T06:45:23;8.80;99.90
44886;DHT22;36669;51.428;21.162;2024-03-29T06:47:49;8.80;99.90
44886;DHT22;36669;51.428;21.162;2024-03-29T06:50:15;8.80;99.90
44886;DHT22;36669;51.428;21.162;2024-03-29T06:52:41;8.90;99.90
44886;DHT22;36669;51.428;21.162;2024-03-29T06:55:08;9.00;99.90
44886;DHT22;36669;51.428;21.162;2024-03-29T06:57:36;9.10;99.90
44886;DHT22;36669;51.428;21.162;2024-03-29T07:00:03;9.20;99.90
44886;DHT22;36669;51.428;21.162;2024-03-29T07:02:30;9.20;99.90
44886;DHT22;36669;51.428;21.162;2024-03-29T07:04:58;9.20;99.90
44886;DHT22;36669;51.428;21.162;2024-03-29T07:07:32;9.30;99.90
44886;DHT22;36669;51.428;21.162;2024-03-29T07:09:59;9.40;99.90
44886;DHT22;36669;51.428;21.162;2024-03-29T07:12:26;9.40;99.90
44886;DHT22;36669;51.428;21.162;2024-03-29T07:14:51;9.50;99.90
44886;DHT22;36669;51.428;21.162;2024-03-29T07:17:18;9.50;99.90
44886;DHT22;36669;51.428;21.162;2024-03-29T07:19:45;9.50;99.90
44886;DHT22;36669;51.428;21.162;2024-03-29T07:22:12;9.50;99.90
44886;DHT22;36669;51.428;21.162;2024-03-29T07:24:37;9.60;99.90
44886;DHT22;36669;51.428;21.162;2024-03-29T07:27:04;9.60;99.90
44886;DHT22;36669;51.428;21.162;2024-03-29T07:29:31;9.70;99.90
44886;DHT22;36669;51.428;21.162;2024-03-29T07:32:00;9.80;99.90
44886;DHT22;36669;51.428;21.162;2024-03-29T07:34:27;9.90;99.90
44886;DHT22;36669;51.428;21.162;2024-03-29T07:36:54;9.90;99.90
44886;DHT22;36669;51.428;21.162;2024-03-29T07:39:21;10.00;99.90
44886;DHT22;36669;51.428;21.162;2024-03-29T07:41:49;10.10;99.90
44886;DHT22;36669;51.428;21.162;2024-03-29T07:44:16;10.20;99.90
44886;DHT22;36669;51.428;21.162;2024-03-29T07:46:43;10.40;99.90
44886;DHT22;36669;51.428;21.162;2024-03-29T07:49:11;10.50;99.90
44886;DHT22;36669;51.428;21.162;2024-03-29T07:51:37;10.60;99.90
44886;DHT22;36669;51.428;21.162;2024-03-29T07:54:03;10.50;99.90
44886;DHT22;36669;51.428;21.162;2024-03-29T07:56:30;10.50;99.90
44886;DHT22;36669;51.428;21.162;2024-03-29T07:58:56;10.60;99.90
44886;DHT22;36669;51.428;21.162;2024-03-29T08:01:23;10.60;99.90
44886;DHT22;36669;51.428;21.162;2024-03-29T08:03:53;10.60;99.90
44886;DHT22;36669;51.428;21.162;2024-03-29T08:06:22;10.50;99.90
44886;DHT22;36669;51.428;21.162;2024-03-29T08:08:52;10.60;99.90
44886;DHT22;36669;51.428;21.162;2024-03-29T08:11:18;10.70;99.90
44886;DHT22;36669;51.428;21.162;2024-03-29T08:13:43;10.80;99.90
44886;DHT22;36669;51.428;21.162;2024-03-29T08:16:09;10.90;99.90
44886;DHT22;36669;51.428;21.162;2024-03-29T08:18:37;11.10;99.90
44886;DHT22;36669;51.428;21.162;2024-03-29T08:21:03;11.00;99.90
44886;DHT22;36669;51.428;21.162;2024-03-29T08:23:31;10.90;99.90
44886;DHT22;36669;51.428;21.162;2024-03-29T08:25:58;11.00;99.90
44886;DHT22;36669;51.428;21.162;2024-03-29T08:28:24;11.10;99.90
44886;DHT22;36669;51.428;21.162;2024-03-29T08:33:27;11.10;99.90
44886;DHT22;36669;51.428;21.162;2024-03-29T08:35:54;11.30;99.90
44886;DHT22;36669;51.428;21.162;2024-03-29T08:38:22;11.40;99.90
44886;DHT22;36669;51.428;21.162;2024-03-29T08:40:48;11.40;99.90
44886;DHT22;36669;51.428;21.162;2024-03-29T08:43:16;11.40;99.90
44886;DHT22;36669;51.428;21.162;2024-03-29T08:45:45;11.60;99.90
44886;DHT22;36669;51.428;21.162;2024-03-29T08:48:12;11.50;99.90
44886;DHT22;36669;51.428;21.162;2024-03-29T08:50:39;11.50;99.90
44886;DHT22;36669;51.428;21.162;2024-03-29T08:53:06;11.50;99.90
44886;DHT22;36669;51.428;21.162;2024-03-29T08:55:39;11.80;99.90
44886;DHT22;36669;51.428;21.162;2024-03-29T08:58:06;11.90;99.90
44886;DHT22;36669;51.428;21.162;2024-03-29T09:00:32;11.90;99.90
44886;DHT22;36669;51.428;21.162;2024-03-29T09:02:59;11.90;99.90
44886;DHT22;36669;51.428;21.162;2024-03-29T09:05:28;12.00;99.90
44886;DHT22;36669;51.428;21.162;2024-03-29T09:07:55;12.00;99.90
44886;DHT22;36669;51.428;21.162;2024-03-29T09:10:23;12.10;99.90
44886;DHT22;36669;51.428;21.162;2024-03-29T09:12:50;12.10;99.90
44886;DHT22;36669;51.428;21.162;2024-03-29T09:15:17;12.20;99.90
44886;DHT22;36669;51.428;21.162;2024-03-29T09:17:45;12.20;99.90
44886;DHT22;36669;51.428;21.162;2024-03-29T09:20:13;12.20;99.90
44886;DHT22;36669;51.428;21.162;2024-03-29T09:22:39;12.20;99.90
44886;DHT22;36669;51.428;21.162;2024-03-29T09:25:07;12.40;99.90
44886;DHT22;36669;51.428;21.162;2024-03-29T09:27:41;12.50;99.90
44886;DHT22;36669;51.428;21.162;2024-03-29T09:30:14;12.60;99.90
44886;DHT22;36669;51.428;21.162;2024-03-29T09:32:41;12.70;99.90
44886;DHT22;36669;51.428;21.162;2024-03-29T09:35:08;12.90;99.90
44886;DHT22;36669;51.428;21.162;2024-03-29T09:37:35;13.00;99.90
44886;DHT22;36669;51.428;21.162;2024-03-29T09:40:03;13.10;99.90
44886;DHT22;36669;51.428;21.162;2024-03-29T09:42:33;13.00;99.90
44886;DHT22;36669;51.428;21.162;2024-03-29T09:45:03;13.20;99.90
44886;DHT22;36669;51.428;21.162;2024-03-29T09:47:33;13.50;99.90
44886;DHT22;36669;51.428;21.162;2024-03-29T09:50:05;13.60;99.90
44886;DHT22;36669;51.428;21.162;2024-03-29T09:52:34;13.60;99.90
44886;DHT22;36669;51.428;21.162;2024-03-29T09:55:03;13.80;99.90
44886;DHT22;36669;51.428;21.162;2024-03-29T09:57:31;13.70;99.90
44886;DHT22;36669;51.428;21.162;2024-03-29T09:59:57;13.70;99.90
44886;DHT22;36669;51.428;21.162;2024-03-29T10:02:30;14.10;99.90
44886;DHT22;36669;51.428;21.162;2024-03-29T10:04:57;14.20;99.90
44886;DHT22;36669;51.428;21.162;2024-03-29T10:07:27;14.20;99.90
44886;DHT22;36669;51.428;21.162;2024-03-29T10:09:56;14.00;99.90
44886;DHT22;36669;51.428;21.162;2024-03-29T10:12:24;14.10;99.90
44886;DHT22;36669;51.428;21.162;2024-03-29T10:14:51;14.10;99.60
44886;DHT22;36669;51.428;21.162;2024-03-29T10:17:37;14.20;98.40
44886;DHT22;36669;51.428;21.162;2024-03-29T10:20:05;14.30;98.80
44886;DHT22;36669;51.428;21.162;2024-03-29T10:22:43;14.60;98.20
44886;DHT22;36669;51.428;21.162;2024-03-29T10:25:14;14.80;96.60
44886;DHT22;36669;51.428;21.162;2024-03-29T10:27:41;15.00;96.40
44886;DHT22;36669;51.428;21.162;2024-03-29T10:30:14;15.10;94.10
44886;DHT22;36669;51.428;21.162;2024-03-29T10:32:44;15.30;93.20
44886;DHT22;36669;51.428;21.162;2024-03-29T10:35:11;15.50;92.30
44886;DHT22;36669;51.428;21.162;2024-03-29T10:37:38;15.60;91.00
44886;DHT22;36669;51.428;21.162;2024-03-29T10:40:08;15.50;88.90
44886;DHT22;36669;51.428;21.162;2024-03-29T10:42:37;15.00;86.60
44886;DHT22;36669;51.428;21.162;2024-03-29T10:45:06;15.20;87.60
44886;DHT22;36669;51.428;21.162;2024-03-29T10:47:34;15.10;86.20
44886;DHT22;36669;51.428;21.162;2024-03-29T10:50:01;15.20;87.50
44886;DHT22;36669;51.428;21.162;2024-03-29T10:52:31;15.20;85.80
44886;DHT22;36669;51.428;21.162;2024-03-29T10:54:58;15.50;84.50
44886;DHT22;36669;51.428;21.162;2024-03-29T10:57:26;15.80;85.80
44886;DHT22;36669;51.428;21.162;2024-03-29T11:00:16;16.00;86.50
44886;DHT22;36669;51.428;21.162;2024-03-29T11:05:33;15.90;83.00
44886;DHT22;36669;51.428;21.162;2024-03-29T11:08:05;16.00;84.70
44886;DHT22;36669;51.428;21.162;2024-03-29T11:10:44;16.40;80.20
44886;DHT22;36669;51.428;21.162;2024-03-29T11:15:50;16.70;77.00
44886;DHT22;36669;51.428;21.162;2024-03-29T11:18:18;16.10;78.70
44886;DHT22;36669;51.428;21.162;2024-03-29T11:20:47;16.40;77.60
44886;DHT22;36669;51.428;21.162;2024-03-29T11:23:21;16.70;78.90
44886;DHT22;36669;51.428;21.162;2024-03-29T11:25:56;17.10;74.80
44886;DHT22;36669;51.428;21.162;2024-03-29T11:28:35;17.70;75.60
44886;DHT22;36669;51.428;21.162;2024-03-29T11:31:08;17.90;73.30
44886;DHT22;36669;51.428;21.162;2024-03-29T11:36:38;16.70;70.20
44886;DHT22;36669;51.428;21.162;2024-03-29T11:39:23;16.80;69.50
44886;DHT22;36669;51.428;21.162;2024-03-29T11:41:50;17.20;70.50
44886;DHT22;36669;51.428;21.162;2024-03-29T11:44:17;17.10;70.40
44886;DHT22;36669;51.428;21.162;2024-03-29T11:46:44;16.60;66.40
44886;DHT22;36669;51.428;21.162;2024-03-29T11:49:13;17.30;68.30
44886;DHT22;36669;51.428;21.162;2024-03-29T11:51:41;16.60;62.00
44886;DHT22;36669;51.428;21.162;2024-03-29T11:54:08;16.90;63.60
44886;DHT22;36669;51.428;21.162;2024-03-29T11:56:33;16.90;63.40
44886;DHT22;36669;51.428;21.162;2024-03-29T11:59:00;16.80;65.80
44886;DHT22;36669;51.428;21.162;2024-03-29T12:01:31;17.20;63.20
44886;DHT22;36669;51.428;21.162;2024-03-29T12:04:00;16.80;60.90
44886;DHT22;36669;51.428;21.162;2024-03-29T12:06:27;16.80;61.50
44886;DHT22;36669;51.428;21.162;2024-03-29T12:08:54;16.90;62.10
44886;DHT22;36669;51.428;21.162;2024-03-29T12:11:23;17.30;59.70
44886;DHT22;36669;51.428;21.162;2024-03-29T12:13:53;17.20;56.50
44886;DHT22;36669;51.428;21.162;2024-03-29T12:16:18;17.10;57.70
44886;DHT22;36669;51.428;21.162;2024-03-29T12:18:47;17.30;59.20
44886;DHT22;36669;51.428;21.162;2024-03-29T12:21:14;17.70;57.60
44886;DHT22;36669;51.428;21.162;2024-03-29T12:23:47;17.60;56.90
44886;DHT22;36669;51.428;21.162;2024-03-29T12:26:15;17.60;56.30
44886;DHT22;36669;51.428;21.162;2024-03-29T12:28:43;18.00;56.40
44886;DHT22;36669;51.428;21.162;2024-03-29T12:31:11;18.30;55.20
44886;DHT22;36669;51.428;21.162;2024-03-29T12:33:37;18.30;52.20
44886;DHT22;36669;51.428;21.162;2024-03-29T12:36:04;17.40;51.70
44886;DHT22;36669;51.428;21.162;2024-03-29T12:38:32;17.30;51.20
44886;DHT22;36669;51.428;21.162;2024-03-29T12:41:01;17.20;50.00
44886;DHT22;36669;51.428;21.162;2024-03-29T12:43:28;17.50;49.50
44886;DHT22;36669;51.428;21.162;2024-03-29T12:45:56;17.80;50.00
44886;DHT22;36669;51.428;21.162;2024-03-29T12:48:24;17.70;49.70
44886;DHT22;36669;51.428;21.162;2024-03-29T12:50:52;17.70;49.90
44886;DHT22;36669;51.428;21.162;2024-03-29T12:53:21;17.50;46.60
44886;DHT22;36669;51.428;21.162;2024-03-29T12:55:48;17.90;48.30
44886;DHT22;36669;51.428;21.162;2024-03-29T12:58:14;18.50;48.60
44886;DHT22;36669;51.428;21.162;2024-03-29T13:00:42;19.00;47.50
44886;DHT22;36669;51.428;21.162;2024-03-29T13:03:10;18.30;45.10
44886;DHT22;36669;51.428;21.162;2024-03-29T13:05:40;17.80;45.30
44886;DHT22;36669;51.428;21.162;2024-03-29T13:08:15;18.10;46.50
44886;DHT22;36669;51.428;21.162;2024-03-29T13:10:42;18.90;46.90
44886;DHT22;36669;51.428;21.162;2024-03-29T13:13:11;18.90;46.80
44886;DHT22;36669;51.428;21.162;2024-03-29T13:15:39;18.80;46.10
44886;DHT22;36669;51.428;21.162;2024-03-29T13:18:06;18.70;48.40
44886;DHT22;36669;51.428;21.162;2024-03-29T13:20:36;18.20;48.50
44886;DHT22;36669;51.428;21.162;2024-03-29T13:23:08;18.30;50.30
44886;DHT22;36669;51.428;21.162;2024-03-29T13:25:36;19.10;49.10
44886;DHT22;36669;51.428;21.162;2024-03-29T13:28:03;19.90;46.10
44886;DHT22;36669;51.428;21.162;2024-03-29T13:30:28;20.30;44.70
44886;DHT22;36669;51.428;21.162;2024-03-29T13:32:56;20.60;43.90
44886;DHT22;36669;51.428;21.162;2024-03-29T13:35:22;20.00;43.80
44886;DHT22;36669;51.428;21.162;2024-03-29T13:37:49;19.20;45.40
44886;DHT22;36669;51.428;21.162;2024-03-29T13:40:18;19.40;43.80
44886;DHT22;36669;51.428;21.162;2024-03-29T13:42:44;19.10;43.10
44886;DHT22;36669;51.428;21.162;2024-03-29T13:45:13;19.30;43.10
44886;DHT22;36669;51.428;21.162;2024-03-29T13:47:43;19.40;43.30
44886;DHT22;36669;51.428;21.162;2024-03-29T13:50:12;18.20;44.40
44886;DHT22;36669;51.428;21.162;2024-03-29T13:52:42;18.10;45.50
44886;DHT22;36669;51.428;21.162;2024-03-29T13:55:12;17.70;45.30
44886;DHT22;36669;51.428;21.162;2024-03-29T13:57:40;17.70;46.10
44886;DHT22;36669;51.428;21.162;2024-03-29T14:00:07;17.60;45.40
44886;DHT22;36669;51.428;21.162;2024-03-29T14:02:34;17.60;45.50
44886;DHT22;36669;51.428;21.162;2024-03-29T14:05:02;17.70;47.10
44886;DHT22;36669;51.428;21.162;2024-03-29T14:07:30;18.30;45.80
44886;DHT22;36669;51.428;21.162;2024-03-29T14:09:55;18.30;45.10
44886;DHT22;36669;51.428;21.162;2024-03-29T14:12:21;18.50;44.80
44886;DHT22;36669;51.428;21.162;2024-03-29T14:14:48;18.30;45.00
44886;DHT22;36669;51.428;21.162;2024-03-29T14:17:19;18.50;45.80
44886;DHT22;36669;51.428;21.162;2024-03-29T14:19:49;18.40;43.70
44886;DHT22;36669;51.428;21.162;2024-03-29T14:22:17;18.40;44.20
44886;DHT22;36669;51.428;21.162;2024-03-29T14:24:45;18.00;44.90
44886;DHT22;36669;51.428;21.162;2024-03-29T14:27:12;18.00;45.70
44886;DHT22;36669;51.428;21.162;2024-03-29T14:29:38;17.60;46.30
44886;DHT22;36669;51.428;21.162;2024-03-29T14:32:05;17.40;45.90
44886;DHT22;36669;51.428;21.162;2024-03-29T14:34:33;17.30;45.90
44886;DHT22;36669;51.428;21.162;2024-03-29T14:37:06;17.20;46.50
44886;DHT22;36669;51.428;21.162;2024-03-29T14:39:34;17.30;46.40
44886;DHT22;36669;51.428;21.162;2024-03-29T14:42:02;17.50;46.10
44886;DHT22;36669;51.428;21.162;2024-03-29T14:44:31;17.70;46.00
44886;DHT22;36669;51.428;21.162;2024-03-29T14:46:58;17.80;45.10
44886;DHT22;36669;51.428;21.162;2024-03-29T14:49:26;18.70;44.70
44886;DHT22;36669;51.428;21.162;2024-03-29T14:51:52;19.60;42.90
44886;DHT22;36669;51.428;21.162;2024-03-29T14:54:19;20.30;42.40
44886;DHT22;36669;51.428;21.162;2024-03-29T14:56:46;20.30;41.30
44886;DHT22;36669;51.428;21.162;2024-03-29T14:59:12;20.70;40.90
44886;DHT22;36669;51.428;21.162;2024-03-29T15:01:40;20.30;38.90
44886;DHT22;36669;51.428;21.162;2024-03-29T15:04:09;20.30;41.50
44886;DHT22;36669;51.428;21.162;2024-03-29T15:06:37;21.30;39.10
44886;DHT22;36669;51.428;21.162;2024-03-29T15:09:03;22.00;37.80
44886;DHT22;36669;51.428;21.162;2024-03-29T15:11:32;21.80;36.60
44886;DHT22;36669;51.428;21.162;2024-03-29T15:14:03;21.10;38.10
44886;DHT22;36669;51.428;21.162;2024-03-29T15:16:31;20.70;38.80
44886;DHT22;36669;51.428;21.162;2024-03-29T15:18:58;20.70;39.10
44886;DHT22;36669;51.428;21.162;2024-03-29T15:21:25;19.90;39.30
44886;DHT22;36669;51.428;21.162;2024-03-29T15:23:52;19.20;39.70
44886;DHT22;36669;51.428;21.162;2024-03-29T15:26:20;19.20;40.00
44886;DHT22;36669;51.428;21.162;2024-03-29T15:28:47;19.10;40.10
44886;DHT22;36669;51.428;21.162;2024-03-29T15:31:50;18.60;40.30
44886;DHT22;36669;51.428;21.162;2024-03-29T15:34:17;18.50;41.40
44886;DHT22;36669;51.428;21.162;2024-03-29T15:36:43;19.00;41.50
44886;DHT22;36669;51.428;21.162;2024-03-29T15:39:09;19.20;41.30